Time;durP1;ratioP1;P1;durP2;ratioP2;P2;SDS_P1;SDS_P2;PMS_P1;PMS_P2;Temp;Humidity;BMP_temperature;BMP_pressure;BME280_temperature;BME280_humidity;BME280_pressure;Samples;Min_cycle;Max_cycle;Signal;HPM_P1;HPM_P2
2023/01/16 00:01:52;;;;;;;4.60;2.10;;;;;;;16.17;67.36;99561.91;5056033;28;20024;-76
2023/01/16 00:04:18;;;;;;;5.22;2.20;;;;;;;16.17;68.47;99558.47;5041747;28;20091;-76
2023/01/16 00:06:43;;;;;;;3.75;1.92;;;;;;;16.16;68.51;99546.41;5041864;28;20056;-76
2023/01/16 00:09:09;;;;;;;3.67;2.08;;;;;;;16.15;68.06;99544.69;5058385;28;20029;-77
2023/01/16 00:11:34;;;;;;;3.70;2.00;;;;;;;16.15;67.83;99529.09;5058523;28;20078;-77
2023/01/16 00:14:00;;;;;;;4.93;2.13;;;;;;;16.15;67.38;99534.31;5058199;28;20035;-75
2023/01/16 00:16:27;;;;;;;3.60;2.15;;;;;;;16.16;68.40;99531.69;5058460;28;20035;-75
2023/01/16 00:18:53;;;;;;;3.72;1.83;;;;;;;16.16;67.44;99516.09;5058280;28;20036;-75
2023/01/16 00:21:19;;;;;;;2.83;1.63;;;;;;;16.14;68.85;99517.03;5058230;28;20055;-75
2023/01/16 00:23:45;;;;;;;3.53;1.98;;;;;;;16.14;68.11;99504.91;5041697;28;20024;-78
2023/01/16 00:26:11;;;;;;;5.32;1.98;;;;;;;16.15;68.04;99503.16;5058185;28;20154;-75
2023/01/16 00:28:37;;;;;;;4.82;1.80;;;;;;;16.14;68.11;99504.06;5041639;28;20094;-76
2023/01/16 00:31:04;;;;;;;3.60;2.10;;;;;;;16.13;67.75;99495.41;5024940;28;20455;-75
2023/01/16 00:33:30;;;;;;;2.78;1.60;;;;;;;16.12;68.39;99485.91;5057816;28;20035;-76
2023/01/16 00:35:56;;;;;;;3.83;1.75;;;;;;;16.12;68.27;99482.47;5024380;28;20490;-75
2023/01/16 00:38:21;;;;;;;3.75;1.90;;;;;;;16.13;68.58;99486.78;5041358;28;20089;-75
2023/01/16 00:40:46;;;;;;;2.30;1.52;;;;;;;16.11;68.42;99470.38;5024766;28;20058;-75
2023/01/16 00:43:12;;;;;;;3.47;1.77;;;;;;;16.11;68.45;99470.38;5057767;28;20474;-76
2023/01/16 00:45:39;;;;;;;2.65;1.73;;;;;;;16.10;68.62;99464.34;5041143;28;20032;-77
2023/01/16 00:48:05;;;;;;;3.33;1.63;;;;;;;16.10;68.53;99466.94;5041420;28;20024;-76
2023/01/16 00:50:31;;;;;;;2.83;1.65;;;;;;;16.08;67.60;99453.16;5075640;28;20371;-76
2023/01/16 00:52:56;;;;;;;2.85;1.80;;;;;;;16.09;67.63;99448.81;5041167;28;20036;-75
2023/01/16 00:55:22;;;;;;;3.28;1.60;;;;;;;16.08;67.93;99440.19;5057598;28;20382;-76
2023/01/16 00:57:47;;;;;;;3.55;1.70;;;;;;;16.09;67.91;99428.91;5024372;28;20085;-76
2023/01/16 01:00:13;;;;;;;2.97;1.50;;;;;;;16.09;67.88;99425.44;5057668;28;20024;-76
2023/01/16 01:02:38;;;;;;;4.07;1.70;;;;;;;16.07;68.17;99415.13;5040895;28;20094;-76
2023/01/16 01:05:06;;;;;;;2.75;1.70;;;;;;;16.06;68.03;99409.97;5057371;28;20029;-76
2023/01/16 01:07:31;;;;;;;2.88;1.52;;;;;;;16.06;67.87;99404.78;5041064;28;20021;-76
2023/01/16 01:09:57;;;;;;;2.22;1.40;;;;;;;16.06;68.27;99402.19;5040563;28;20028;-76
2023/01/16 01:12:22;;;;;;;3.05;1.65;;;;;;;16.06;67.60;99397.00;5040763;28;20094;-76
2023/01/16 01:14:47;;;;;;;2.78;1.55;;;;;;;16.04;68.30;99386.66;5040608;28;20119;-76
2023/01/16 01:17:13;;;;;;;2.53;1.52;;;;;;;16.04;68.02;99387.50;5040410;28;20059;-77
2023/01/16 01:19:38;;;;;;;3.42;1.65;;;;;;;16.03;68.38;99380.63;5057015;28;20536;-78
2023/01/16 01:22:04;;;;;;;2.53;1.27;;;;;;;16.04;68.48;99382.31;5074847;28;20024;-76
2023/01/16 01:24:29;;;;;;;3.03;1.85;;;;;;;16.03;68.20;99378.03;5023896;28;20060;-76
2023/01/16 01:26:54;;;;;;;2.85;1.70;;;;;;;16.03;68.12;99366.78;5023934;28;20021;-76
2023/01/16 01:29:20;;;;;;;1.70;1.27;;;;;;;16.02;68.72;99368.50;5040378;28;20558;-76
2023/01/16 01:31:45;;;;;;;3.85;1.55;;;;;;;16.02;68.24;99365.91;5057000;28;20536;-77
2023/01/16 01:34:11;;;;;;;2.92;1.60;;;;;;;16.03;67.41;99359.84;5056675;28;20385;-76
2023/01/16 01:36:36;;;;;;;1.77;1.20;;;;;;;16.02;67.72;99352.09;5040158;28;20115;-76
2023/01/16 01:39:02;;;;;;;1.98;1.33;;;;;;;16.00;67.67;99344.38;5023683;28;20381;-76
2023/01/16 01:41:27;;;;;;;2.35;1.50;;;;;;;16.00;68.57;99335.72;5056795;28;20029;-77
2023/01/16 01:43:55;;;;;;;2.13;1.25;;;;;;;16.01;68.32;99340.03;5039954;28;20429;-77
2023/01/16 01:46:24;;;;;;;1.92;1.20;;;;;;;16.00;68.13;99346.09;5055560;28;20024;-76
2023/01/16 01:49:04;;;;;;;2.45;1.42;;;;;;;15.99;68.19;99341.81;5056543;28;20032;-78
2023/01/16 01:51:34;;;;;;;2.58;1.65;;;;;;;15.99;67.67;99341.81;5074439;28;20028;-77
2023/01/16 01:54:08;;;;;;;1.92;1.27;;;;;;;15.99;67.98;99339.22;5056830;28;20048;-75
2023/01/16 01:56:47;;;;;;;2.58;1.20;;;;;;;16.00;67.46;99338.31;5056938;28;20025;-75
2023/01/16 01:59:20;;;;;;;2.10;1.40;;;;;;;15.98;68.25;99322.81;5075160;28;20490;-76
2023/01/16 02:01:46;;;;;;;3.08;1.48;;;;;;;15.98;67.70;99322.81;5057415;28;20078;-75
2023/01/16 02:04:22;;;;;;;2.45;1.30;;;;;;;15.98;67.12;99315.03;5056382;28;20052;-75
2023/01/16 02:06:53;;;;;;;1.52;1.13;;;;;;;15.98;68.39;99304.66;5056372;28;20032;-77
2023/01/16 02:09:21;;;;;;;2.45;1.33;;;;;;;15.97;68.47;99295.16;5074152;28;20026;-76
2023/01/16 02:12:14;;;;;;;2.92;1.40;;;;;;;15.97;67.57;99292.56;5056176;28;20386;-76
2023/01/16 02:14:42;;;;;;;3.42;1.40;;;;;;;15.97;67.39;99291.72;5046746;28;20123;-75
2023/01/16 02:20:24;;;;;;;2.35;1.20;;;;;;;15.96;67.92;99284.81;5074161;28;20094;-76
2023/01/16 02:23:11;;;;;;;1.50;1.02;;;;;;;15.95;67.90;99276.19;5055723;28;20513;-76
2023/01/16 02:25:45;;;;;;;1.73;1.15;;;;;;;15.94;67.89;99266.72;5055613;28;20024;-76
2023/01/16 02:28:29;;;;;;;3.30;1.50;;;;;;;15.93;67.60;99265.00;5055680;28;20032;-75
2023/01/16 02:31:18;;;;;;;1.88;1.10;;;;;;;15.93;67.82;99249.44;5055641;28;20024;-77
2023/01/16 02:34:14;;;;;;;1.52;0.95;;;;;;;15.94;67.85;99252.88;5055813;28;20190;-77
2023/01/16 02:36:58;;;;;;;2.22;1.27;;;;;;;15.93;66.53;99253.78;5055446;28;20025;-77
2023/01/16 02:39:26;;;;;;;2.53;1.30;;;;;;;15.94;67.57;99265.84;5055640;28;20497;-76
2023/01/16 02:42:21;;;;;;;2.08;1.20;;;;;;;15.94;68.33;99271.03;5055541;28;20036;-75
2023/01/16 02:45:02;;;;;;;2.08;1.40;;;;;;;15.93;67.66;99265.00;5055758;28;20482;-77
2023/01/16 02:47:38;;;;;;;2.00;1.25;;;;;;;15.91;68.08;99256.41;5055681;28;20356;-76
2023/01/16 02:50:32;;;;;;;1.73;1.10;;;;;;;15.92;68.03;99245.16;5073406;28;20453;-77
2023/01/16 02:53:16;;;;;;;2.47;1.23;;;;;;;15.93;67.38;99238.22;5073533;28;20103;-76
2023/01/16 02:55:45;;;;;;;;;;;;;;;15.93;67.00;99238.22;5055808;28;20467;-77
2023/01/16 02:58:12;;;;;;;2.83;1.20;;;;;;;15.94;67.07;99229.50;5059044;28;19908;-76
2023/01/16 03:00:52;;;;;;;2.35;1.30;;;;;;;15.94;67.52;99229.50;5079834;28;20089;-76
2023/01/16 03:03:40;;;;;;;1.98;1.20;;;;;;;15.94;67.38;99219.13;5061787;28;20059;-77
2023/01/16 03:06:32;;;;;;;2.22;1.40;;;;;;;15.93;66.63;99215.69;5080257;28;20024;-76
2023/01/16 03:09:23;;;;;;;2.70;1.30;;;;;;;15.93;67.72;99204.47;5079985;28;20036;-77
2023/01/16 03:12:12;;;;;;;1.75;1.20;;;;;;;15.93;66.84;99196.69;5061929;28;20024;-77
2023/01/16 03:15:15;;;;;;;2.00;1.10;;;;;;;15.90;67.51;99181.25;5061115;28;20036;-76
2023/01/16 03:18:03;;;;;;;2.42;1.20;;;;;;;15.91;66.92;99165.59;5048052;28;20055;-76
2023/01/16 03:20:49;;;;;;;2.28;1.27;;;;;;;15.90;67.13;99156.13;5061806;28;20409;-76
2023/01/16 03:23:26;;;;;;;2.53;1.20;;;;;;;15.90;66.80;99157.88;5061824;28;20028;-76
2023/01/16 03:26:00;;;;;;;2.08;1.02;;;;;;;15.90;67.14;99132.78;5061933;28;20016;-77
2023/01/16 03:28:25;;;;;;;;;;;;;;;15.90;67.79;99140.56;5062257;28;20028;-76
2023/01/16 03:30:59;;;;;;;2.47;1.17;;;;;;;15.89;67.78;99132.81;5061724;28;19908;-76
2023/01/16 03:33:53;;;;;;;1.90;1.20;;;;;;;15.88;66.50;99124.19;5061765;28;20099;-76
2023/01/16 03:36:31;;;;;;;2.00;1.17;;;;;;;15.89;67.63;99123.28;5061719;28;20387;-76
2023/01/16 03:38:58;;;;;;;3.55;1.20;;;;;;;15.88;67.41;99126.78;5061736;28;20174;-74
2023/01/16 03:41:27;;;;;;;1.95;1.15;;;;;;;15.88;67.47;99123.34;5045985;28;20123;-76
2023/01/16 03:44:00;;;;;;;1.95;1.05;;;;;;;15.88;66.83;99128.53;5045262;28;20020;-77
2023/01/16 03:46:32;;;;;;;2.53;1.20;;;;;;;15.89;67.89;99117.25;5061905;28;20021;-78
2023/01/16 03:49:10;;;;;;;2.20;1.00;;;;;;;15.87;67.58;99106.91;5061691;28;20325;-75
2023/01/16 03:51:43;;;;;;;2.13;1.23;;;;;;;15.87;67.27;99098.31;5061704;28;20375;-75
2023/01/16 03:54:32;;;;;;;2.42;1.10;;;;;;;15.87;66.82;99098.31;5061720;28;20016;-76
2023/01/16 03:57:08;;;;;;;2.15;1.10;;;;;;;15.87;67.17;99090.53;5061670;28;20498;-76
2023/01/16 03:59:36;;;;;;;3.22;1.00;;;;;;;15.87;67.33;99093.94;5061586;28;20071;-77
2023/01/16 04:02:11;;;;;;;2.03;1.08;;;;;;;15.87;67.90;99074.94;5079450;28;20141;-76
2023/01/16 04:05:02;;;;;;;1.70;0.93;;;;;;;15.87;67.71;99064.56;5061453;28;20105;-77
2023/01/16 04:07:43;;;;;;;2.08;1.00;;;;;;;15.84;68.37;99063.78;5061517;28;20413;-77
2023/01/16 04:10:18;;;;;;;1.30;0.90;;;;;;;15.87;67.96;99051.59;5058542;28;20029;-76
2023/01/16 04:12:50;;;;;;;1.98;1.05;;;;;;;15.86;67.41;99044.75;5058338;28;20025;-76
2023/01/16 04:15:17;;;;;;;3.15;1.30;;;;;;;15.85;67.21;99049.06;5076249;28;20050;-76
2023/01/16 04:17:42;;;;;;;1.63;1.00;;;;;;;15.84;67.72;99045.63;5058428;28;20108;-76
2023/01/16 04:20:09;;;;;;;1.33;1.02;;;;;;;15.83;67.60;99040.50;5041646;28;20115;-77
2023/01/16 04:22:35;;;;;;;1.40;0.80;;;;;;;15.82;67.55;99020.63;5076155;28;20028;-76
2023/01/16 04:25:03;;;;;;;1.83;1.00;;;;;;;15.82;67.44;99016.28;5041493;28;20028;-76
2023/01/16 04:27:29;;;;;;;1.98;1.10;;;;;;;15.82;67.72;99008.50;5076164;28;20025;-76
2023/01/16 04:29:55;;;;;;;2.80;1.13;;;;;;;15.82;67.40;99008.50;5024876;28;20051;-76
2023/01/16 04:32:20;;;;;;;2.72;1.02;;;;;;;15.82;67.76;99000.72;5041682;28;20035;-77
2023/01/16 04:34:46;;;;;;;1.73;0.98;;;;;;;15.81;67.58;98988.66;5025035;28;20036;-76
2023/01/16 04:37:16;;;;;;;1.42;0.90;;;;;;;15.80;67.96;98973.97;5041248;28;20025;-75
2023/01/16 04:39:42;;;;;;;1.95;1.08;;;;;;;15.80;67.24;98971.38;5043038;28;20028;-78
2023/01/16 04:42:08;;;;;;;1.65;0.98;;;;;;;15.80;66.76;98965.38;5058978;28;20082;-76
2023/01/16 04:44:34;;;;;;;1.42;0.80;;;;;;;15.79;67.87;98951.56;5058868;28;20024;-76
2023/01/16 04:46:59;;;;;;;1.92;1.08;;;;;;;15.80;67.37;98949.81;5059386;28;20382;-76
2023/01/16 04:49:24;;;;;;;3.35;1.10;;;;;;;15.79;67.63;98929.97;5041860;28;20028;-76
2023/01/16 04:51:50;;;;;;;1.85;1.00;;;;;;;15.78;67.64;98918.72;5041228;28;20029;-76
2023/01/16 04:54:17;;;;;;;2.78;1.25;;;;;;;15.79;67.27;98924.78;5041172;28;20035;-75
2023/01/16 04:56:43;;;;;;;1.58;0.85;;;;;;;15.79;67.56;98915.25;5041241;28;20044;-80
2023/01/16 04:59:10;;;;;;;2.33;1.05;;;;;;;15.79;67.40;98897.09;5041452;28;20486;-79
2023/01/16 05:01:37;;;;;;;2.88;1.05;;;;;;;15.79;67.33;98889.31;5041623;28;20482;-80
2023/01/16 05:04:04;;;;;;;1.83;0.93;;;;;;;15.80;67.39;98891.00;5040716;28;20048;-79
2023/01/16 05:06:30;;;;;;;1.30;0.70;;;;;;;15.79;67.51;98881.53;5075367;28;20539;-82
2023/01/16 05:08:55;;;;;;;1.40;0.80;;;;;;;15.80;67.94;98880.63;5040858;28;20123;-81
2023/01/16 05:11:20;;;;;;;1.75;0.80;;;;;;;15.80;67.55;98867.66;5040670;28;20028;-80
2023/01/16 05:13:46;;;;;;;1.50;0.73;;;;;;;15.80;67.63;98867.66;5057581;28;20104;-81
2023/01/16 05:16:11;;;;;;;1.58;0.82;;;;;;;15.79;67.76;98855.59;5024253;28;20032;-80
2023/01/16 05:18:37;;;;;;;2.40;0.80;;;;;;;15.80;67.12;98844.31;5024246;28;20082;-81
2023/01/16 05:21:03;;;;;;;2.00;0.90;;;;;;;15.80;67.42;98839.13;5056455;28;20033;-78
2023/01/16 05:23:29;;;;;;;1.02;0.68;;;;;;;15.81;67.52;98834.81;5040855;28;20056;-80
2023/01/16 05:25:54;;;;;;;2.47;0.90;;;;;;;15.81;67.27;98822.69;5040493;28;20051;-80
2023/01/16 05:28:20;;;;;;;1.65;0.90;;;;;;;15.81;67.22;98825.28;5040433;28;20060;-80
2023/01/16 05:30:47;;;;;;;1.65;0.80;;;;;;;15.80;66.70;98805.41;5057229;28;20052;-80
2023/01/16 05:33:13;;;;;;;1.80;0.80;;;;;;;15.81;67.12;98796.75;5056868;28;20028;-81
2023/01/16 05:35:38;;;;;;;1.55;0.73;;;;;;;15.80;67.26;98797.63;5023561;28;20390;-82
2023/01/16 05:38:03;;;;;;;2.05;0.93;;;;;;;15.80;67.17;98784.66;5040172;28;20090;-81
2023/01/16 05:40:29;;;;;;;1.73;0.90;;;;;;;15.81;67.21;98764.78;5056876;28;20032;-79
2023/01/16 05:42:54;;;;;;;1.20;0.70;;;;;;;15.80;67.17;98756.13;5040178;28;20058;-82
2023/01/16 05:45:20;;;;;;;1.38;0.77;;;;;;;15.82;67.37;98753.50;5056838;28;20070;-79
2023/01/16 05:47:45;;;;;;;1.13;0.60;;;;;;;15.80;67.12;98740.56;5056732;28;20033;-81
2023/01/16 05:50:11;;;;;;;2.10;0.90;;;;;;;15.80;66.69;98730.19;5040134;28;20047;-81
2023/01/16 05:52:36;;;;;;;2.00;0.65;;;;;;;15.80;66.92;98727.59;5023556;28;20025;-81
2023/01/16 05:55:02;;;;;;;1.17;0.70;;;;;;;15.81;66.78;98725.88;5040031;28;20052;-80
2023/01/16 05:57:29;;;;;;;1.10;0.80;;;;;;;15.79;66.91;98707.78;5074293;28;20028;-79
2023/01/16 05:59:54;;;;;;;1.63;0.70;;;;;;;15.79;66.84;98706.94;5023779;28;20028;-83
2023/01/16 06:02:20;;;;;;;1.50;0.80;;;;;;;15.79;66.89;98702.59;5039791;28;20020;-78
2023/01/16 06:04:46;;;;;;;1.25;0.65;;;;;;;15.81;66.96;98694.75;5056366;28;20498;-80
2023/01/16 06:07:12;;;;;;;1.02;0.70;;;;;;;15.81;67.23;98689.56;5039921;28;20059;-87
2023/01/16 06:09:38;;;;;;;1.85;0.93;;;;;;;15.87;66.30;98691.06;5040684;28;20033;-88
2023/01/16 06:12:04;;;;;;;2.83;1.40;;;;;;;15.84;66.90;98685.09;5057045;28;20085;-85
2023/01/16 06:14:30;;;;;;;5.10;2.10;;;;;;;15.83;66.60;98683.41;5040357;28;20467;-83
2023/01/16 06:16:55;;;;;;;4.43;2.10;;;;;;;15.82;66.62;98673.94;5056135;28;20028;-78
2023/01/16 06:19:21;;;;;;;6.25;2.45;;;;;;;15.84;66.45;98658.31;5039953;28;20040;-80
2023/01/16 06:21:46;;;;;;;5.72;2.33;;;;;;;15.82;66.32;98655.78;5039712;28;20020;-85
2023/01/16 06:24:11;;;;;;;5.45;2.30;;;;;;;15.83;66.61;98659.25;5039636;28;20039;-78
2023/01/16 06:26:37;;;;;;;7.88;2.28;;;;;;;15.83;66.80;98654.91;5023227;28;20394;-83
2023/01/16 06:29:02;;;;;;;6.32;2.45;;;;;;;15.83;66.50;98646.28;5039739;28;20025;-84
2023/01/16 06:31:28;;;;;;;6.70;2.70;;;;;;;15.83;66.81;98641.09;5039612;28;20078;-84
2023/01/16 06:33:54;;;;;;;6.22;2.33;;;;;;;15.82;66.92;98645.41;5039098;28;20052;-80
2023/01/16 06:36:19;;;;;;;6.97;2.67;;;;;;;15.84;66.29;98637.56;5039406;28;20399;-83
2023/01/16 06:38:44;;;;;;;6.45;2.50;;;;;;;15.83;66.57;98636.75;5056372;28;20028;-86
2023/01/16 06:41:10;;;;;;;7.63;2.80;;;;;;;15.84;66.79;98628.03;5040012;28;20038;-83
2023/01/16 06:43:36;;;;;;;8.13;2.65;;;;;;;15.85;66.59;98621.09;5040457;28;20029;-86
2023/01/16 06:46:01;;;;;;;7.15;3.00;;;;;;;15.86;66.60;98621.97;5040399;28;20056;-87
2023/01/16 06:48:27;;;;;;;9.23;2.95;;;;;;;15.86;66.47;98620.22;5039798;28;20041;-84
2023/01/16 06:50:53;;;;;;;13.32;3.53;;;;;;;15.88;66.82;98617.56;5039995;28;20027;-83
2023/01/16 06:53:18;;;;;;;9.50;3.40;;;;;;;15.89;66.79;98611.47;5039960;28;20078;-83
2023/01/16 06:55:43;;;;;;;8.85;3.55;;;;;;;15.88;66.52;98600.25;5039521;28;20025;-85
2023/01/16 06:58:09;;;;;;;12.45;4.20;;;;;;;16.03;65.51;98601.41;5039905;28;20091;-89
2023/01/16 07:00:36;;;;;;;15.93;4.68;;;;;;;16.18;63.51;98587.00;5040391;28;20024;-90
2023/01/16 07:03:01;;;;;;;12.65;4.47;;;;;;;16.26;62.89;98582.34;5056949;28;20486;-90
2023/01/16 07:05:28;;;;;;;12.05;4.18;;;;;;;16.33;62.52;98585.53;5023845;28;20035;-88
2023/01/16 07:07:54;;;;;;;15.52;4.63;;;;;;;16.34;62.68;98575.09;5056759;28;20459;-84
2023/01/16 07:10:22;;;;;;;10.02;3.88;;;;;;;16.34;62.53;98566.47;5056263;28;20055;-90
2023/01/16 07:12:49;;;;;;;10.02;3.90;;;;;;;16.36;62.16;98552.53;5074448;28;20083;-87
2023/01/16 07:24:04;;;;;;;7.22;3.33;;;;;;;16.39;61.77;98528.19;5020440;28;20030;-87
2023/01/16 07:26:31;;;;;;;10.07;3.58;;;;;;;16.39;61.98;98518.63;5057604;28;20023;-85
2023/01/16 07:28:57;;;;;;;7.65;3.05;;;;;;;16.42;61.82;98515.09;5075971;28;20048;-87
2023/01/16 07:31:23;;;;;;;7.20;3.33;;;;;;;16.41;61.59;98521.19;5044817;28;20028;-85
2023/01/16 07:33:49;;;;;;;9.00;3.35;;;;;;;16.43;61.54;98506.38;5057346;28;20044;-89
2023/01/16 07:36:14;;;;;;;6.65;3.28;;;;;;;16.44;61.66;98503.72;5059251;28;20029;-88
2023/01/16 07:38:39;;;;;;;11.63;3.58;;;;;;;16.43;61.60;98481.25;5044060;28;20036;-88
2023/01/16 07:41:05;;;;;;;6.50;3.22;;;;;;;16.45;61.37;98486.41;5041222;28;20028;-88
2023/01/16 07:43:30;;;;;;;7.90;3.20;;;;;;;16.45;61.43;98476.00;5041204;28;20036;-87
2023/01/16 07:45:56;;;;;;;7.13;3.00;;;;;;;16.45;61.32;98465.63;5029164;28;20032;-89
2023/01/16 07:48:22;;;;;;;5.97;2.97;;;;;;;16.47;61.63;98468.16;5064361;28;20032;-86
2023/01/16 07:50:56;;;;;;;6.28;2.80;;;;;;;16.47;61.49;98460.38;5043458;28;20032;-83
2023/01/16 07:53:23;;;;;;;7.32;2.75;;;;;;;16.47;61.37;98457.78;5043779;28;20119;-85
2023/01/16 07:55:54;;;;;;;8.02;2.92;;;;;;;16.49;61.15;98445.59;5059530;28;20074;-84
2023/01/16 07:58:23;;;;;;;7.07;2.88;;;;;;;16.47;61.31;98440.44;5059647;28;20027;-82
2023/01/16 08:00:49;;;;;;;5.88;2.90;;;;;;;16.48;61.27;98436.94;5059257;28;20119;-82
2023/01/16 08:03:15;;;;;;;5.07;2.47;;;;;;;16.49;60.89;98433.44;5059121;28;20095;-85
2023/01/16 08:05:43;;;;;;;4.20;2.50;;;;;;;16.51;60.91;98431.63;5060444;28;20490;-87
2023/01/16 08:08:09;;;;;;;4.38;2.35;;;;;;;16.50;61.39;98416.09;5060829;28;20070;-83
2023/01/16 08:10:34;;;;;;;5.03;2.20;;;;;;;16.50;61.05;98406.56;5077473;28;20060;-85
2023/01/16 08:13:00;;;;;;;8.45;2.70;;;;;;;16.51;60.89;98405.66;5059371;28;20063;-86
2023/01/16 08:15:25;;;;;;;4.70;2.20;;;;;;;16.49;60.84;98397.09;5042211;28;20024;-84
2023/01/16 08:17:51;;;;;;;4.60;2.22;;;;;;;16.53;60.82;98392.63;5059285;28;20044;-85
2023/01/16 08:20:16;;;;;;;5.50;2.13;;;;;;;16.51;60.92;98368.47;5042442;28;20043;-85
2023/01/16 08:22:47;;;;;;;5.72;2.30;;;;;;;16.51;61.05;98366.72;5025877;28;20055;-83
2023/01/16 08:25:13;;;;;;;4.55;2.20;;;;;;;16.53;60.95;98361.47;5059037;28;20066;-87
2023/01/16 08:27:40;;;;;;;5.13;2.30;;;;;;;16.53;60.87;98351.09;5059029;28;20020;-85
2023/01/16 08:30:06;;;;;;;5.57;2.40;;;;;;;16.52;60.76;98342.44;5025938;28;20035;-85
2023/01/16 08:32:31;;;;;;;3.70;2.10;;;;;;;16.52;60.90;98342.44;5041980;28;20033;-87
2023/01/16 08:34:57;;;;;;;4.32;1.90;;;;;;;16.53;60.63;98333.75;5042361;28;20111;-88
2023/01/16 08:37:22;;;;;;;5.32;1.95;;;;;;;16.55;61.01;98321.53;5059211;28;20032;-85
2023/01/16 08:39:47;;;;;;;4.07;1.90;;;;;;;16.55;60.68;98316.34;5025898;28;20528;-86
2023/01/16 08:53:08;;;;;;;;;;;;;;;16.58;60.44;98282.44;5061901;28;20035;-87
2023/01/16 08:55:34;;;;;;;3.90;1.90;;;;;;;16.58;60.48;98274.66;5058108;28;19916;-87
2023/01/16 08:57:59;;;;;;;2.58;1.65;;;;;;;16.56;60.44;98284.28;5042006;28;20036;-87
2023/01/16 09:00:26;;;;;;;2.80;1.70;;;;;;;16.59;60.34;98270.31;5041910;28;20149;-87
2023/01/16 09:02:52;;;;;;;3.55;1.60;;;;;;;16.59;60.37;98268.56;5058430;28;20066;-90
2023/01/16 09:05:18;;;;;;;2.85;1.50;;;;;;;16.59;60.43;98262.50;5025636;28;20032;-88
2023/01/16 09:07:43;;;;;;;3.53;1.60;;;;;;;16.59;60.08;98250.41;5058812;28;20143;-88
2023/01/16 09:10:10;;;;;;;3.78;1.80;;;;;;;16.61;60.25;98248.56;5025172;28;20052;-85
2023/01/16 09:15:19;;;;;;;3.50;1.70;;;;;;;16.61;60.24;98243.38;5061297;28;20521;-86
2023/01/16 09:17:45;;;;;;;2.70;1.40;;;;;;;16.61;60.25;98237.31;5058253;28;20040;-87
2023/01/16 09:20:10;;;;;;;4.35;1.60;;;;;;;16.62;60.28;98239.03;5041396;28;20422;-86
2023/01/16 09:22:36;;;;;;;2.83;1.50;;;;;;;16.63;60.20;98228.53;5041695;28;20134;-85
2023/01/16 09:25:01;;;;;;;3.60;1.42;;;;;;;16.63;60.12;98223.34;5041588;28;20500;-85
2023/01/16 09:27:27;;;;;;;2.97;1.58;;;;;;;16.63;60.14;98223.34;5041371;28;20484;-85
2023/01/16 09:29:52;;;;;;;2.33;1.27;;;;;;;16.64;60.02;98219.03;5041530;28;20038;-87
2023/01/16 09:32:18;;;;;;;2.22;1.33;;;;;;;16.64;59.73;98213.81;5041177;28;20028;-88
2023/01/16 09:34:44;;;;;;;2.28;1.08;;;;;;;16.64;59.94;98208.63;5057763;28;20119;-83
2023/01/16 09:37:09;;;;;;;2.50;1.35;;;;;;;16.66;59.87;98209.41;5058080;28;20029;-85
2023/01/16 09:39:36;;;;;;;2.60;1.20;;;;;;;16.65;59.97;98202.50;5041107;28;20032;-84
2023/01/16 09:45:08;;;;;;;2.22;1.17;;;;;;;16.67;60.15;98191.13;5075761;28;20105;-85
2023/01/16 09:47:35;;;;;;;2.55;1.30;;;;;;;16.66;60.00;98175.66;5057862;28;20063;-86
2023/01/16 09:50:12;;;;;;;2.40;1.27;;;;;;;16.67;59.77;98178.16;5057722;28;20028;-87
2023/01/16 09:58:36;;;;;;;2.10;1.05;;;;;;;16.70;59.68;98163.34;5075420;28;20039;-84
2023/01/16 10:01:03;;;;;;;2.20;1.10;;;;;;;16.69;59.69;98149.53;5041494;28;20364;-87
2023/01/16 10:03:29;;;;;;;2.58;1.27;;;;;;;16.70;59.64;98147.75;5074959;28;20513;-86
2023/01/16 10:06:22;;;;;;;1.67;1.05;;;;;;;16.71;59.55;98139.06;5040789;28;20028;-86
2023/01/16 10:09:24;;;;;;;1.90;1.00;;;;;;;16.71;59.47;98142.50;5056552;28;20028;-87
2023/01/16 10:12:03;;;;;;;1.83;1.00;;;;;;;16.72;59.46;98135.53;5069392;28;20017;-86
2023/01/16 10:15:03;;;;;;;2.17;1.10;;;;;;;16.72;59.42;98123.38;5078742;28;20024;-86
2023/01/16 10:18:11;;;;;;;1.60;0.93;;;;;;;16.72;59.50;98123.38;5076210;28;20052;-87
2023/01/16 10:20:36;;;;;;;2.28;1.02;;;;;;;16.74;59.31;98115.53;5025176;28;20111;-87
2023/01/16 10:23:10;;;;;;;1.63;1.10;;;;;;;16.74;59.52;98115.53;5059408;28;20060;-88
2023/01/16 10:25:48;;;;;;;2.17;1.00;;;;;;;16.74;59.27;98108.56;5058026;28;20024;-87
2023/01/16 10:28:32;;;;;;;1.95;0.90;;;;;;;16.75;59.39;98099.06;5057263;28;20021;-88
2023/01/16 10:31:10;;;;;;;2.35;0.85;;;;;;;16.75;59.43;98101.66;5075084;28;20032;-87
2023/01/16 10:33:55;;;;;;;2.42;1.00;;;;;;;16.75;59.62;98093.84;5057294;28;20028;-83
2023/01/16 10:36:25;;;;;;;1.45;1.00;;;;;;;16.75;59.45;98086.91;5075144;28;20036;-87
2023/01/16 10:38:56;;;;;;;1.80;1.00;;;;;;;16.75;59.27;98079.09;5057359;28;20056;-87
2023/01/16 10:50:07;;;;;;;1.40;1.00;;;;;;;16.76;59.21;98067.78;5075887;28;20086;-87
2023/01/16 10:52:34;;;;;;;1.80;0.93;;;;;;;16.75;59.23;98063.53;5059255;28;20032;-86
2023/01/16 10:55:01;;;;;;;1.23;0.80;;;;;;;16.77;59.21;98051.31;5043071;28;20036;-87
2023/01/16 10:57:27;;;;;;;1.35;0.73;;;;;;;16.78;59.08;98054.75;5042251;28;20069;-88
2023/01/16 11:00:16;;;;;;;1.88;0.85;;;;;;;16.77;59.18;98053.91;5041893;28;20467;-88
2023/01/16 11:02:43;;;;;;;1.33;0.60;;;;;;;16.78;59.10;98042.59;5059184;28;20123;-87
2023/01/16 11:05:42;;;;;;;2.08;1.00;;;;;;;16.78;59.25;98039.16;5058701;28;20182;-87
2023/01/16 11:08:15;;;;;;;1.23;0.77;;;;;;;16.79;59.11;98030.47;5004525;28;20052;-86
2023/01/16 11:10:46;;;;;;;1.05;0.70;;;;;;;16.79;59.30;98027.88;5075887;28;20027;-87
2023/01/16 11:18:55;;;;;;;1.30;0.60;;;;;;;16.80;58.96;98008.78;5076701;28;20067;-86
2023/01/16 11:21:27;;;;;;;1.73;0.75;;;;;;;16.79;59.03;98009.69;5078995;28;20020;-88
2023/01/16 11:24:08;;;;;;;1.90;0.80;;;;;;;16.82;59.07;98009.56;5061150;28;20024;-87
2023/01/16 11:26:33;;;;;;;1.58;0.77;;;;;;;16.81;59.00;98005.25;5060743;28;20021;-87
2023/01/16 11:28:59;;;;;;;2.38;0.60;;;;;;;16.81;58.96;97994.88;5027983;28;20165;-87
2023/01/16 11:31:30;;;;;;;1.20;0.70;;;;;;;16.82;58.75;97989.59;5028089;28;20470;-87
2023/01/16 11:34:04;;;;;;;1.17;0.70;;;;;;;16.81;59.20;97985.34;5078723;28;20032;-88
2023/01/16 11:36:33;;;;;;;1.23;0.73;;;;;;;16.81;58.78;97987.94;5060642;28;20024;-86
2023/01/16 11:38:59;;;;;;;0.90;0.60;;;;;;;16.82;58.89;97971.44;5061449;28;20029;-88
2023/01/16 11:41:33;;;;;;;0.82;0.50;;;;;;;16.82;58.75;97974.03;5044459;28;20418;-84
2023/01/16 11:47:01;;;;;;;1.27;0.77;;;;;;;16.83;58.75;97956.69;5078799;28;20659;-87
2023/01/16 11:49:34;;;;;;;1.60;0.60;;;;;;;16.82;58.86;97968.84;5043876;28;20142;-87
2023/01/16 11:52:03;;;;;;;1.25;0.65;;;;;;;16.84;58.77;97955.78;5060389;28;20024;-87
2023/01/16 11:54:31;;;;;;;1.55;0.60;;;;;;;16.84;58.77;97942.78;5044300;28;20133;-88
2023/01/16 11:57:16;;;;;;;1.23;0.70;;;;;;;16.83;58.70;97941.97;5060364;28;20020;-87
2023/01/16 11:59:55;;;;;;;0.90;0.50;;;;;;;16.85;58.62;97941.84;5060101;28;20047;-87
2023/01/16 12:02:35;;;;;;;1.15;0.50;;;;;;;16.86;58.50;97935.75;5078304;28;20025;-86
2023/01/16 12:08:35;;;;;;;0.82;0.60;;;;;;;16.86;58.65;97926.19;5078068;28;20047;-88
2023/01/16 12:11:25;;;;;;;0.80;0.50;;;;;;;16.86;58.62;97925.38;5059936;28;20123;-85
2023/01/16 12:14:17;;;;;;;0.90;0.60;;;;;;;16.88;58.32;97914.91;5059991;28;20051;-86
2023/01/16 12:17:07;;;;;;;0.93;0.60;;;;;;;16.85;58.50;97914.16;5059996;28;20482;-85
2023/01/16 12:19:53;;;;;;;1.42;0.60;;;;;;;16.86;58.61;97910.63;5059553;28;20131;-85
2023/01/16 12:22:22;;;;;;;1.00;0.70;;;;;;;16.86;58.52;97900.22;5077584;28;20359;-86
2023/01/16 12:24:54;;;;;;;1.17;0.68;;;;;;;16.87;58.52;97903.66;5059861;28;20028;-85
2023/01/16 12:27:48;;;;;;;1.53;0.60;;;;;;;16.88;58.51;97901.91;5059710;28;20370;-88
2023/01/16 12:30:30;;;;;;;0.73;0.40;;;;;;;16.88;58.48;97884.56;5058866;28;20294;-87
2023/01/16 12:33:43;;;;;;;0.75;0.50;;;;;;;16.88;58.61;97883.75;5059357;28;20379;-86
2023/01/16 12:37:05;;;;;;;0.57;0.47;;;;;;;16.91;58.33;97889.59;5054194;28;20067;-87
2023/01/16 12:39:40;;;;;;;0.60;0.45;;;;;;;16.91;58.63;97886.16;4962702;28;20066;-88
2023/01/16 12:45:22;;;;;;;0.73;0.45;;;;;;;16.92;57.99;97874.84;5073037;28;20039;-87
2023/01/16 12:48:14;;;;;;;0.68;0.47;;;;;;;16.91;58.29;97871.41;5059775;28;20418;-88
2023/01/16 12:50:58;;;;;;;1.95;0.60;;;;;;;16.93;58.32;97871.34;5059295;28;20020;-87